createdAt,value
2022-12-31T00:01:19.389Z,97232.00
2022-12-31T00:03:20.805Z,97216.28
2022-12-31T00:05:22.743Z,97214.00
2022-12-31T00:07:24.054Z,97215.47
2022-12-31T00:09:25.362Z,97222.06
2022-12-31T00:11:26.700Z,97209.13
2022-12-31T00:13:27.999Z,97228.56
2022-12-31T00:15:29.295Z,97221.63
2022-12-31T00:17:30.805Z,97246.00
2022-12-31T00:19:32.118Z,97240.69
2022-12-31T00:21:33.443Z,97247.41
2022-12-31T00:23:34.760Z,97249.00
2022-12-31T00:25:36.346Z,97241.22
2022-12-31T00:27:37.636Z,97252.13
2022-12-31T00:29:38.934Z,97245.22
2022-12-31T00:31:40.331Z,97257.13
2022-12-31T00:33:41.623Z,97259.53
2022-12-31T00:35:42.947Z,97266.44
2022-12-31T00:37:44.251Z,97280.94
2022-12-31T00:39:45.551Z,97283.56
2022-12-31T00:41:46.893Z,97287.00
2022-12-31T00:43:48.192Z,97289.56
2022-12-31T00:45:49.548Z,97309.22
2022-12-31T00:47:50.880Z,97300.78
2022-12-31T00:49:52.220Z,97294.84
2022-12-31T00:51:53.558Z,97319.53
2022-12-31T00:53:54.889Z,97311.00
2022-12-31T00:55:56.191Z,97305.13
2022-12-31T00:57:57.527Z,97306.94
2022-12-31T00:59:58.826Z,97304.56
2022-12-31T01:02:00.249Z,97289.38
2022-12-31T01:04:01.647Z,97281.88
2022-12-31T01:06:02.955Z,97281.16
2022-12-31T01:08:04.289Z,97284.75
2022-12-31T01:10:05.628Z,97303.56
2022-12-31T01:12:06.922Z,97306.13
2022-12-31T01:14:08.253Z,97303.69
2022-12-31T01:16:09.680Z,97306.38
2022-12-31T01:18:11.048Z,97320.91
2022-12-31T01:20:12.388Z,97325.22
2022-12-31T01:22:13.686Z,97317.69
2022-12-31T01:24:14.989Z,97322.03
2022-12-31T01:26:16.380Z,97322.94
2022-12-31T01:28:17.687Z,97327.28
2022-12-31T01:30:19.027Z,97333.19
2022-12-31T01:32:20.323Z,97325.53
2022-12-31T01:34:21.660Z,97324.72
2022-12-31T01:36:25.886Z,97340.81
2022-12-31T01:38:27.684Z,97339.13
2022-12-31T01:40:29.141Z,97332.22
2022-12-31T01:42:30.448Z,97338.94
2022-12-31T01:44:31.789Z,97332.03
2022-12-31T01:46:33.113Z,97323.41
2022-12-31T01:48:34.416Z,97330.91
2022-12-31T01:50:35.726Z,97334.16
2022-12-31T01:52:37.075Z,97337.44
2022-12-31T01:54:38.415Z,97330.50
2022-12-31T01:56:39.707Z,97337.09
2022-12-31T01:58:41.018Z,97343.97
2022-12-31T02:00:42.321Z,97361.88
2022-12-31T02:02:43.722Z,97363.56
2022-12-31T02:04:45.101Z,97363.50
2022-12-31T02:06:46.409Z,97362.44
2022-12-31T02:08:47.707Z,97358.25
2022-12-31T02:10:49.009Z,97359.88
2022-12-31T02:12:50.303Z,97372.56
2022-12-31T02:14:51.656Z,97353.94
2022-12-31T02:16:53.141Z,97359.13
2022-12-31T02:18:56.268Z,97364.16
2022-12-31T02:20:57.650Z,97358.91
2022-12-31T02:22:59.014Z,97348.63
2022-12-31T02:25:00.590Z,97358.91
2022-12-31T02:27:01.984Z,97358.91
2022-12-31T02:29:03.306Z,97367.47
2022-12-31T02:31:04.651Z,97367.56
2022-12-31T02:33:05.998Z,97373.63
2022-12-31T02:35:07.334Z,97370.44
2022-12-31T02:37:08.634Z,97373.09
2022-12-31T02:39:09.947Z,97383.44
2022-12-31T02:41:11.280Z,97388.63
2022-12-31T02:43:12.575Z,97378.41
2022-12-31T02:45:13.867Z,97375.97
2022-12-31T02:47:15.167Z,97376.13
2022-12-31T02:49:16.467Z,97373.66
2022-12-31T02:51:17.797Z,97370.38
2022-12-31T02:53:19.123Z,97366.28
2022-12-31T02:55:20.462Z,97248.56
2022-12-31T02:57:21.750Z,97383.22
2022-12-31T02:59:41.586Z,97381.59
2022-12-31T03:02:01.719Z,97385.91
2022-12-31T03:04:23.302Z,97385.91
2022-12-31T03:06:24.642Z,97384.16
2022-12-31T03:08:25.990Z,97238.16
2022-12-31T03:10:27.399Z,97409.44
2022-12-31T03:12:47.639Z,97391.25
2022-12-31T03:14:49.085Z,97377.56
2022-12-31T03:16:50.395Z,97369.81
2022-12-31T03:19:10.405Z,97358.63
2022-12-31T03:21:30.387Z,97359.44
2022-12-31T03:23:31.729Z,97356.72
2022-12-31T03:25:33.068Z,97351.53
2022-12-31T03:27:34.358Z,97345.50
2022-12-31T03:29:35.654Z,97344.63
2022-12-31T03:31:38.217Z,97356.41
2022-12-31T03:33:39.631Z,97367.47
2022-12-31T03:35:40.938Z,97359.78
2022-12-31T03:37:42.278Z,97335.84
2022-12-31T03:39:43.599Z,97353.00
2022-12-31T03:41:44.895Z,97358.28
2022-12-31T03:43:46.401Z,97360.94
2022-12-31T03:45:47.758Z,97163.66
2022-12-31T03:47:49.089Z,97374.63
2022-12-31T03:49:50.446Z,97373.09
2022-12-31T03:51:51.745Z,97380.81
2022-12-31T03:53:53.048Z,97382.66
2022-12-31T03:55:54.351Z,97378.59
2022-12-31T03:57:55.767Z,97377.00
2022-12-31T03:59:57.131Z,97374.63
2022-12-31T04:01:58.608Z,97384.06
2022-12-31T04:03:59.959Z,97380.78
2022-12-31T04:06:01.283Z,97372.34
2022-12-31T04:08:03.050Z,97368.19
2022-12-31T04:10:04.371Z,97358.69
2022-12-31T04:12:05.668Z,97348.59
2022-12-31T04:14:06.969Z,97348.69
2022-12-31T04:16:08.306Z,97341.91
2022-12-31T04:18:09.652Z,97334.09
2022-12-31T04:20:10.964Z,97332.31
2022-12-31T04:22:12.293Z,97334.09
2022-12-31T04:24:13.624Z,97339.16
2022-12-31T04:26:14.918Z,97335.63
2022-12-31T04:28:16.347Z,97339.59
2022-12-31T04:30:17.694Z,97355.03
2022-12-31T04:32:18.993Z,97349.22
2022-12-31T04:34:20.286Z,97352.56
2022-12-31T04:36:21.590Z,97355.88
2022-12-31T04:38:22.896Z,97352.50
2022-12-31T04:40:24.306Z,97357.56
2022-12-31T04:42:25.618Z,97354.09
2022-12-31T04:44:26.967Z,97353.22
2022-12-31T04:46:28.288Z,97353.16
2022-12-31T04:48:29.623Z,97351.41
2022-12-31T04:50:30.964Z,97350.50
2022-12-31T04:52:35.771Z,97344.56
2022-12-31T04:54:40.003Z,97353.06
2022-12-31T04:56:41.353Z,97352.22
2022-12-31T04:58:42.691Z,97355.69
2022-12-31T05:00:46.072Z,97356.47
2022-12-31T05:02:47.557Z,97361.63
2022-12-31T05:04:49.060Z,97359.09
2022-12-31T05:06:50.467Z,97359.03
2022-12-31T05:08:51.821Z,97351.34
2022-12-31T05:10:53.112Z,97349.63
2022-12-31T05:12:54.450Z,97353.91
2022-12-31T05:14:55.822Z,97343.63
2022-12-31T05:16:58.367Z,97347.94
2022-12-31T05:18:59.706Z,97341.19
2022-12-31T05:21:01.046Z,97331.78
2022-12-31T05:23:02.376Z,97322.47
2022-12-31T05:25:03.728Z,97324.19
2022-12-31T05:27:05.017Z,97331.03
2022-12-31T05:29:06.312Z,97333.66
2022-12-31T05:31:07.705Z,97341.31
2022-12-31T05:33:09.044Z,97343.75
2022-12-31T05:35:10.409Z,97347.66
2022-12-31T05:37:12.143Z,97337.34
2022-12-31T05:39:13.475Z,97336.50
2022-12-31T05:41:14.775Z,97333.06
2022-12-31T05:43:16.078Z,97345.88
2022-12-31T05:45:18.467Z,97341.59
2022-12-31T05:47:19.799Z,97332.25
2022-12-31T05:49:21.129Z,97339.09
2022-12-31T05:51:22.418Z,97338.28
2022-12-31T05:53:23.962Z,97351.06
2022-12-31T05:55:25.400Z,97347.59
2022-12-31T05:57:26.686Z,97339.09
2022-12-31T05:59:27.989Z,97339.22
2022-12-31T06:01:29.335Z,97340.03
2022-12-31T06:03:30.730Z,97346.88
2022-12-31T06:05:32.044Z,97361.38
2022-12-31T06:07:33.352Z,97350.31
2022-12-31T06:09:34.706Z,97362.25
2022-12-31T06:11:36.020Z,97359.78
2022-12-31T06:13:37.381Z,97362.41
2022-12-31T06:15:39.524Z,97358.19
2022-12-31T06:17:40.935Z,97363.38
2022-12-31T06:19:42.236Z,97366.00
2022-12-31T06:21:43.529Z,97366.84
2022-12-31T06:23:44.845Z,97359.19
2022-12-31T06:25:46.138Z,97354.09
2022-12-31T06:27:47.483Z,97351.63
2022-12-31T06:29:48.816Z,97366.16
2022-12-31T06:31:50.115Z,97366.16
2022-12-31T06:33:51.424Z,97367.09
2022-12-31T06:35:52.720Z,97366.22
2022-12-31T06:37:54.078Z,97382.31
2022-12-31T06:39:55.427Z,97378.13
2022-12-31T06:41:56.718Z,97375.56
2022-12-31T06:43:58.067Z,97384.84
2022-12-31T06:45:59.363Z,97388.25
2022-12-31T06:48:00.663Z,97253.78
2022-12-31T06:50:02.000Z,97388.16
2022-12-31T06:52:03.310Z,97378.78
2022-12-31T06:54:04.622Z,97377.06
2022-12-31T06:56:05.994Z,97377.84
2022-12-31T06:58:07.286Z,97376.97
2022-12-31T07:00:08.607Z,97370.13
2022-12-31T07:02:10.010Z,97364.19
2022-12-31T07:04:11.351Z,97356.56
2022-12-31T07:06:12.656Z,97351.53
2022-12-31T07:08:13.993Z,97361.78
2022-12-31T07:10:15.327Z,97356.94
2022-12-31T07:12:16.625Z,97365.47
2022-12-31T07:14:18.056Z,97355.41
2022-12-31T07:16:19.423Z,97348.84
2022-12-31T07:18:20.778Z,97353.25
2022-12-31T07:20:22.139Z,97350.81
2022-12-31T07:22:23.500Z,97353.44
2022-12-31T07:24:24.840Z,97361.19
2022-12-31T07:26:26.218Z,97368.94
2022-12-31T07:28:27.552Z,97373.28
2022-12-31T07:30:28.877Z,97382.59
2022-12-31T07:32:30.301Z,97390.97
2022-12-31T07:34:31.639Z,97390.78
2022-12-31T07:36:32.976Z,97384.59
2022-12-31T07:38:34.277Z,97390.31
2022-12-31T07:40:35.675Z,97380.78
2022-12-31T07:42:37.063Z,97382.44
2022-12-31T07:44:38.572Z,97398.22
2022-12-31T07:46:39.892Z,97391.19
2022-12-31T07:48:41.291Z,97393.66
2022-12-31T07:50:42.638Z,97395.19
2022-12-31T07:52:43.939Z,97403.53
2022-12-31T07:54:45.282Z,97401.78
2022-12-31T07:56:46.615Z,97398.31
2022-12-31T07:58:47.955Z,97392.34
2022-12-31T08:00:49.322Z,97401.63
2022-12-31T08:02:50.789Z,97384.59
2022-12-31T08:04:52.145Z,97399.00
2022-12-31T08:06:53.443Z,97409.28
2022-12-31T08:08:54.816Z,97397.28
2022-12-31T08:10:56.150Z,97411.84
2022-12-31T08:12:57.466Z,97427.13
2022-12-31T08:14:58.759Z,97411.75
2022-12-31T08:17:00.059Z,97423.59
2022-12-31T08:19:01.364Z,97416.25
2022-12-31T08:21:02.777Z,97422.91
2022-12-31T08:23:04.091Z,97420.66
2022-12-31T08:25:05.399Z,97431.34
2022-12-31T08:27:06.773Z,97423.38
2022-12-31T08:29:08.074Z,97422.13
2022-12-31T08:31:09.395Z,97421.69
2022-12-31T08:33:10.748Z,97411.28
2022-12-31T08:35:12.280Z,97419.09
2022-12-31T08:37:13.757Z,97416.41
2022-12-31T08:39:15.126Z,97436.59
2022-12-31T08:41:16.539Z,97434.78
2022-12-31T08:43:18.129Z,97437.25
2022-12-31T08:45:19.531Z,97450.69
2022-12-31T08:47:20.833Z,97446.38
2022-12-31T08:49:22.129Z,97448.84
2022-12-31T08:51:23.414Z,97450.41
2022-12-31T08:53:24.718Z,97436.69
2022-12-31T08:55:26.047Z,97433.22
2022-12-31T08:57:27.385Z,97447.63
2022-12-31T08:59:28.684Z,97435.59
2022-12-31T09:01:30.037Z,97439.00
2022-12-31T09:03:31.358Z,97441.63
2022-12-31T09:05:32.696Z,97441.63
2022-12-31T09:07:33.994Z,97450.94
2022-12-31T09:09:36.346Z,97457.75
2022-12-31T09:11:40.761Z,97453.50
2022-12-31T09:13:42.059Z,97437.28
2022-12-31T09:15:43.352Z,97451.78
2022-12-31T09:17:44.924Z,97455.19
2022-12-31T09:19:46.271Z,97451.88
2022-12-31T09:21:47.655Z,97456.03
2022-12-31T09:23:48.963Z,97459.44
2022-12-31T09:25:50.281Z,97451.00
2022-12-31T09:27:51.603Z,97439.88
2022-12-31T09:29:53.563Z,97456.97
2022-12-31T09:31:54.919Z,97445.03
2022-12-31T09:33:56.290Z,97453.53
2022-12-31T09:35:57.600Z,97433.97
2022-12-31T09:37:58.934Z,97439.06
2022-12-31T09:40:00.261Z,97433.03
2022-12-31T09:42:01.576Z,97449.16
2022-12-31T09:44:02.904Z,97438.94
2022-12-31T09:46:04.276Z,97444.06
2022-12-31T09:48:05.635Z,97452.56
2022-12-31T09:50:06.982Z,97457.72
2022-12-31T09:52:08.341Z,97450.94
2022-12-31T09:54:09.638Z,97453.50
2022-12-31T09:56:10.941Z,97457.81
2022-12-31T09:58:12.290Z,97468.88
2022-12-31T10:00:13.607Z,97439.09
2022-12-31T10:02:15.070Z,97461.22
2022-12-31T10:04:16.491Z,97454.44
2022-12-31T10:06:17.788Z,97449.38
2022-12-31T10:08:19.107Z,97444.31
2022-12-31T10:10:20.408Z,97447.75
2022-12-31T10:12:21.706Z,97452.84
2022-12-31T10:14:23.035Z,97463.06
2022-12-31T10:16:24.389Z,97458.81
2022-12-31T10:18:25.735Z,97445.25
2022-12-31T10:20:27.079Z,97436.66
2022-12-31T10:22:28.411Z,97440.19
2022-12-31T10:24:30.339Z,97443.56
2022-12-31T10:26:31.641Z,97429.00
2022-12-31T10:28:32.931Z,97434.13
2022-12-31T10:30:40.035Z,97422.19
2022-12-31T10:32:41.375Z,97424.78
2022-12-31T10:34:43.556Z,97415.41
2022-12-31T10:36:44.848Z,97424.00
2022-12-31T10:38:46.178Z,97420.66
2022-12-31T10:40:47.515Z,97420.66
2022-12-31T10:42:48.861Z,97431.75
2022-12-31T10:44:50.192Z,97429.19
2022-12-31T10:46:51.529Z,97296.84
2022-12-31T10:48:52.929Z,97434.28
2022-12-31T10:50:54.223Z,97441.13
2022-12-31T10:52:55.549Z,97431.81
2022-12-31T10:54:56.835Z,97453.03
2022-12-31T10:56:58.183Z,97448.78
2022-12-31T10:59:02.245Z,97458.06
2022-12-31T11:01:03.626Z,97447.69
2022-12-31T11:03:05.137Z,97451.81
2022-12-31T11:05:06.547Z,97445.31
2022-12-31T11:07:07.869Z,97444.84
2022-12-31T11:09:09.206Z,97447.69
2022-12-31T11:11:10.506Z,97446.78
2022-12-31T11:13:11.844Z,97443.22
2022-12-31T11:15:14.248Z,97450.22
2022-12-31T11:17:15.559Z,97442.84
2022-12-31T11:19:16.884Z,97454.41
2022-12-31T11:21:20.562Z,97448.38
2022-12-31T11:23:26.003Z,97449.88
2022-12-31T11:25:27.575Z,97442.22
2022-12-31T11:27:28.879Z,97435.28
2022-12-31T11:29:30.272Z,97442.81
2022-12-31T11:31:31.660Z,97434.31
2022-12-31T11:33:33.025Z,97447.56
2022-12-31T11:35:34.311Z,97444.47
2022-12-31T11:37:35.648Z,97449.66
2022-12-31T11:39:36.939Z,97441.13
2022-12-31T11:41:38.239Z,97448.44
2022-12-31T11:43:39.617Z,97447.03
2022-12-31T11:45:45.653Z,97457.78
2022-12-31T11:48:28.551Z,97448.09
2022-12-31T11:50:11.294Z,97467.00
2022-12-31T11:52:14.302Z,97456.69
2022-12-31T11:54:18.433Z,97465.03
2022-12-31T11:56:19.741Z,97457.69
2022-12-31T11:58:21.131Z,97460.84
2022-12-31T12:00:22.440Z,97454.31
2022-12-31T12:02:24.655Z,97455.44
2022-12-31T12:04:25.977Z,97449.66
2022-12-31T12:06:27.346Z,97445.44
2022-12-31T12:08:28.836Z,97460.88
2022-12-31T12:10:36.070Z,97462.66
2022-12-31T12:12:38.024Z,97474.59
2022-12-31T12:14:39.382Z,97462.78
2022-12-31T12:16:40.720Z,97460.38
2022-12-31T12:18:42.094Z,97458.06
2022-12-31T12:20:43.427Z,97463.06
2022-12-31T12:22:49.471Z,97456.19
2022-12-31T12:24:50.920Z,97454.44
2022-12-31T12:26:52.216Z,97449.34
2022-12-31T12:28:53.566Z,97455.31
2022-12-31T12:30:55.014Z,97474.84
2022-12-31T12:32:56.369Z,97469.72
2022-12-31T12:34:57.654Z,97466.31
2022-12-31T12:36:59.122Z,97489.31
2022-12-31T12:39:00.468Z,97471.44
2022-12-31T12:41:01.756Z,97467.16
2022-12-31T12:43:03.187Z,97466.41
2022-12-31T12:45:04.539Z,97455.22
2022-12-31T12:47:06.045Z,97442.97
2022-12-31T12:49:07.462Z,97441.44
2022-12-31T12:51:08.992Z,97448.75
2022-12-31T12:55:11.696Z,97446.97
2022-12-31T12:57:13.001Z,97448.22
2022-12-31T12:59:14.425Z,97453.94
2022-12-31T13:01:15.884Z,97455.94
2022-12-31T13:03:17.707Z,97466.06
2022-12-31T13:05:24.391Z,97465.44
2022-12-31T13:07:29.132Z,97467.41
2022-12-31T13:09:30.449Z,97469.50
2022-12-31T13:11:31.823Z,97459.53
2022-12-31T13:13:33.212Z,97463.84
2022-12-31T13:15:40.424Z,97454.53
2022-12-31T13:17:41.718Z,97463.19
2022-12-31T13:19:43.067Z,97464.66
2022-12-31T13:21:44.351Z,97458.81
2022-12-31T13:23:45.646Z,97468.00
2022-12-31T13:25:46.981Z,97469.16
2022-12-31T13:27:48.289Z,97468.88
2022-12-31T13:29:49.667Z,97459.19
2022-12-31T13:31:51.116Z,97467.09
2022-12-31T13:33:52.557Z,97476.00
2022-12-31T13:35:53.934Z,97470.50
2022-12-31T13:37:57.809Z,97482.25
2022-12-31T13:40:03.048Z,97473.72
2022-12-31T13:42:04.365Z,97474.56
2022-12-31T13:44:05.719Z,97471.19
2022-12-31T13:46:07.118Z,97479.75
2022-12-31T13:48:08.479Z,97485.72
2022-12-31T13:50:14.388Z,97485.81
2022-12-31T13:52:19.150Z,97496.91
2022-12-31T13:54:20.466Z,97494.44
2022-12-31T13:56:23.929Z,97509.00
2022-12-31T13:58:25.268Z,97502.25
2022-12-31T14:00:26.693Z,97495.53
2022-12-31T14:02:28.219Z,97509.41
2022-12-31T14:04:29.663Z,97499.22
2022-12-31T14:06:30.999Z,97508.63
2022-12-31T14:08:32.292Z,97509.50
2022-12-31T14:10:33.623Z,97498.44
2022-12-31T14:12:34.915Z,97475.41
2022-12-31T14:14:36.261Z,97500.06
2022-12-31T14:16:37.614Z,97500.91
2022-12-31T14:18:38.957Z,97496.63
2022-12-31T14:20:40.263Z,97506.84
2022-12-31T14:22:41.561Z,97510.88
2022-12-31T14:24:42.887Z,97519.56
2022-12-31T14:26:44.229Z,97498.63
2022-12-31T14:28:47.133Z,97508.94
2022-12-31T14:30:48.551Z,97504.88
2022-12-31T14:32:49.859Z,97503.53
2022-12-31T14:34:51.160Z,97510.50
2022-12-31T14:36:52.462Z,97501.94
2022-12-31T14:38:53.764Z,97525.84
2022-12-31T14:40:55.112Z,97534.81
2022-12-31T14:42:56.732Z,97534.44
2022-12-31T14:44:58.045Z,97530.41
2022-12-31T14:46:59.511Z,97535.78
2022-12-31T14:49:01.033Z,97539.41
2022-12-31T14:51:02.416Z,97548.44
2022-12-31T14:53:03.715Z,97547.28
2022-12-31T14:55:05.036Z,97534.47
2022-12-31T14:57:06.326Z,97541.66
2022-12-31T14:59:10.625Z,97543.63
2022-12-31T15:01:12.018Z,97539.56
2022-12-31T15:03:13.416Z,97544.75
2022-12-31T15:05:14.771Z,97553.25
2022-12-31T15:07:16.080Z,97548.53
2022-12-31T15:09:17.428Z,97547.63
2022-12-31T15:11:18.755Z,97544.97
2022-12-31T15:13:20.047Z,97549.19
2022-12-31T15:15:21.397Z,97553.97
2022-12-31T15:17:22.731Z,97562.38
2022-12-31T15:19:24.023Z,97564.09
2022-12-31T15:21:34.312Z,97562.41
2022-12-31T15:23:35.675Z,97561.47
2022-12-31T15:25:40.791Z,97560.53
2022-12-31T15:27:43.968Z,97567.34
2022-12-31T15:29:45.293Z,97569.88
2022-12-31T15:31:46.591Z,97575.88
2022-12-31T15:33:47.924Z,97571.88
2022-12-31T15:35:49.261Z,97567.91
2022-12-31T15:37:53.620Z,97584.00
2022-12-31T15:39:54.960Z,97577.69
2022-12-31T15:44:19.294Z,97584.81
2022-12-31T15:46:20.653Z,97583.94
2022-12-31T15:48:22.196Z,97595.53
2022-12-31T15:50:23.874Z,97580.03
2022-12-31T15:52:25.176Z,97591.00
2022-12-31T15:54:26.486Z,97609.72
2022-12-31T15:56:27.826Z,97610.56
2022-12-31T15:58:29.130Z,97609.59
2022-12-31T16:00:30.473Z,97619.38
2022-12-31T16:02:31.873Z,97618.63
2022-12-31T16:04:33.671Z,97623.47
2022-12-31T16:06:34.982Z,97625.13
2022-12-31T16:08:36.384Z,97623.50
2022-12-31T16:10:37.712Z,97623.56
2022-12-31T16:12:44.392Z,97626.16
2022-12-31T16:14:49.019Z,97633.94
2022-12-31T16:16:50.324Z,97625.50
2022-12-31T16:18:53.004Z,97633.19
2022-12-31T16:20:54.489Z,97632.38
2022-12-31T16:22:58.684Z,97628.97
2022-12-31T16:25:32.431Z,97626.47
2022-12-31T16:27:21.294Z,97629.03
2022-12-31T16:29:22.598Z,97629.84
2022-12-31T16:31:23.972Z,97632.38
2022-12-31T16:33:25.286Z,97642.53
2022-12-31T16:35:26.627Z,97639.06
2022-12-31T16:37:27.933Z,97639.91
2022-12-31T16:39:29.270Z,97646.72
2022-12-31T16:41:30.603Z,97653.47
2022-12-31T16:43:31.903Z,97661.13
2022-12-31T16:45:33.256Z,97660.28
2022-12-31T16:47:34.565Z,97657.78
2022-12-31T16:49:35.902Z,97656.03
2022-12-31T16:51:37.234Z,97656.03
2022-12-31T16:53:38.529Z,97662.88
2022-12-31T16:55:39.861Z,97668.81
2022-12-31T16:57:41.190Z,97665.44
2022-12-31T16:59:42.530Z,97665.47
2022-12-31T17:01:43.930Z,97677.38
2022-12-31T17:03:45.371Z,97662.91
2022-12-31T17:05:46.707Z,97692.78
2022-12-31T17:07:48.058Z,97669.03
2022-12-31T17:09:49.382Z,97662.34
2022-12-31T17:11:50.970Z,97673.53
2022-12-31T17:13:55.447Z,97670.28
2022-12-31T17:15:56.887Z,97669.56
2022-12-31T17:17:58.258Z,97666.31
2022-12-31T17:19:59.555Z,97653.63
2022-12-31T17:22:00.889Z,97660.59
2022-12-31T17:24:02.234Z,97662.28
2022-12-31T17:26:03.521Z,97658.88
2022-12-31T17:28:05.419Z,97659.66
2022-12-31T17:30:06.747Z,97652.78
2022-12-31T17:32:08.122Z,97656.94
2022-12-31T17:34:09.461Z,97643.28
2022-12-31T17:36:10.767Z,97648.31
2022-12-31T17:38:12.063Z,97650.78
2022-12-31T17:40:49.474Z,97641.41
2022-12-31T17:42:34.663Z,97645.59
2022-12-31T17:44:35.953Z,97643.84
2022-12-31T17:46:37.277Z,97637.00
2022-12-31T17:48:38.622Z,97642.91
2022-12-31T17:50:39.916Z,97640.34
2022-12-31T17:52:41.247Z,97629.28
2022-12-31T17:54:42.584Z,97637.78
2022-12-31T17:56:43.895Z,97645.44
2022-12-31T17:58:45.225Z,97641.19
2022-12-31T18:00:46.553Z,97647.09
2022-12-31T18:02:47.991Z,97656.53
2022-12-31T18:04:49.324Z,97644.59
2022-12-31T18:06:50.676Z,97643.75
2022-12-31T18:08:54.863Z,97646.31
2022-12-31T18:10:56.175Z,97639.50
2022-12-31T18:12:58.894Z,97637.81
2022-12-31T18:15:00.274Z,97637.88
2022-12-31T18:17:01.579Z,97644.59
2022-12-31T18:19:02.881Z,97642.97
2022-12-31T18:21:04.208Z,97651.41
2022-12-31T18:23:05.508Z,97646.31
2022-12-31T18:25:07.444Z,97647.22
2022-12-31T18:27:08.768Z,97654.81
2022-12-31T18:29:10.107Z,97645.44
2022-12-31T18:31:11.427Z,97657.31
2022-12-31T18:33:12.860Z,97655.66
2022-12-31T18:35:33.230Z,97656.50
2022-12-31T18:37:35.498Z,97660.78
2022-12-31T18:39:36.836Z,97648.88
2022-12-31T18:41:38.137Z,97656.53
2022-12-31T18:43:39.434Z,97663.31
2022-12-31T18:45:40.954Z,97668.41
2022-12-31T18:47:42.290Z,97667.53
2022-12-31T18:49:44.958Z,97660.75
2022-12-31T18:51:46.286Z,97660.75
2022-12-31T18:53:47.594Z,97660.75
2022-12-31T18:55:49.010Z,97655.66
2022-12-31T18:57:50.376Z,97648.78
2022-12-31T18:59:51.718Z,97646.28
2022-12-31T19:01:53.133Z,97655.66
2022-12-31T19:03:54.517Z,97655.66
2022-12-31T19:05:55.835Z,97648.00
2022-12-31T19:07:57.199Z,97642.03
2022-12-31T19:09:58.814Z,97641.13
2022-12-31T19:12:00.178Z,97634.31
2022-12-31T19:14:01.477Z,97636.88
2022-12-31T19:16:02.915Z,97642.00
2022-12-31T19:18:04.318Z,97643.72
2022-12-31T19:20:05.768Z,97643.75
2022-12-31T19:22:07.307Z,97641.19
2022-12-31T19:24:08.611Z,97648.78
2022-12-31T19:26:09.914Z,97653.09
2022-12-31T19:28:12.100Z,97648.88
2022-12-31T19:30:13.427Z,97640.34
2022-12-31T19:32:14.830Z,97634.38
2022-12-31T19:34:17.361Z,97645.44
2022-12-31T19:36:18.673Z,97640.34
2022-12-31T19:38:20.037Z,97642.00
2022-12-31T19:40:22.268Z,97648.88
2022-12-31T19:42:23.634Z,97650.53
2022-12-31T19:44:24.986Z,97647.09
2022-12-31T19:46:27.722Z,97646.31
2022-12-31T19:48:32.969Z,97648.03
2022-12-31T19:50:34.567Z,97647.22
2022-12-31T19:52:35.900Z,97636.22
2022-12-31T19:54:37.236Z,97644.75
2022-12-31T19:56:38.549Z,97643.91
2022-12-31T19:58:39.842Z,97651.63
2022-12-31T20:00:46.697Z,97649.13
2022-12-31T20:02:53.163Z,97657.59
2022-12-31T20:04:54.725Z,97655.91
2022-12-31T20:06:56.048Z,97661.84
2022-12-31T20:09:00.555Z,97646.59
2022-12-31T20:11:01.891Z,97652.56
2022-12-31T20:13:03.217Z,97656.81
2022-12-31T20:15:04.559Z,97651.78
2022-12-31T20:17:06.024Z,97648.31
2022-12-31T20:19:07.373Z,97642.41
2022-12-31T20:21:08.746Z,97645.84
2022-12-31T20:23:10.119Z,97650.94
2022-12-31T20:25:11.502Z,97656.88
2022-12-31T20:27:18.314Z,97648.31
2022-12-31T20:29:19.967Z,97645.84
2022-12-31T20:31:21.303Z,97649.28
2022-12-31T20:33:22.727Z,97649.28
2022-12-31T20:35:24.099Z,97654.41
2022-12-31T20:37:25.439Z,97652.72
2022-12-31T20:39:26.774Z,97655.25
2022-12-31T20:41:28.105Z,97658.66
2022-12-31T20:43:29.448Z,97651.84
2022-12-31T20:45:36.682Z,97652.72
2022-12-31T20:47:38.095Z,97647.59
2022-12-31T20:50:09.897Z,97637.44
2022-12-31T20:52:01.041Z,97641.66
2022-12-31T20:54:02.643Z,97645.94
2022-12-31T20:56:04.022Z,97641.63
2022-12-31T20:58:06.236Z,97647.59
2022-12-31T21:00:07.627Z,97650.13
2022-12-31T21:02:20.962Z,97639.09
2022-12-31T21:04:22.968Z,97651.00
2022-12-31T21:06:24.451Z,97652.69
2022-12-31T21:08:29.700Z,97647.59
2022-12-31T21:10:35.831Z,97660.44
2022-12-31T21:12:43.546Z,97657.91
2022-12-31T21:14:45.130Z,97654.53
2022-12-31T21:16:46.515Z,97656.31
2022-12-31T21:18:47.849Z,97662.38
2022-12-31T21:20:49.149Z,97656.56
2022-12-31T21:22:50.494Z,97657.59
2022-12-31T21:24:51.846Z,97644.13
2022-12-31T21:26:53.155Z,97646.78
2022-12-31T21:28:54.479Z,97648.59
2022-12-31T21:30:55.851Z,97647.81
2022-12-31T21:32:57.250Z,97642.78
2022-12-31T21:35:31.430Z,97651.41
2022-12-31T21:37:19.914Z,97640.44
2022-12-31T21:39:21.233Z,97644.75
2022-12-31T21:41:41.188Z,97641.38
2022-12-31T21:43:42.529Z,97633.72
2022-12-31T21:45:43.823Z,97626.81
2022-12-31T21:48:03.828Z,97634.34
2022-12-31T21:50:05.121Z,97628.28
2022-12-31T21:52:25.016Z,97629.13
2022-12-31T21:54:46.650Z,97631.66
2022-12-31T21:56:47.999Z,97624.75
2022-12-31T21:59:09.293Z,97612.81
2022-12-31T22:01:29.256Z,97620.47
2022-12-31T22:03:31.862Z,97617.97
2022-12-31T22:05:33.305Z,97625.63
2022-12-31T22:07:35.194Z,97630.72
2022-12-31T22:09:36.502Z,97637.50
2022-12-31T22:11:37.837Z,97633.28
2022-12-31T22:13:39.195Z,97624.81
2022-12-31T22:15:40.566Z,97631.59
2022-12-31T22:17:41.988Z,97645.22
2022-12-31T22:20:00.891Z,97635.91
2022-12-31T22:22:06.236Z,97639.31
2022-12-31T22:24:07.597Z,97635.84
2022-12-31T22:26:09.015Z,97638.47
2022-12-31T22:28:37.605Z,97642.72
2022-12-31T22:30:31.653Z,97645.28
2022-12-31T22:32:33.035Z,97652.88
2022-12-31T22:34:34.340Z,97667.38
2022-12-31T22:36:35.683Z,97662.28
2022-12-31T22:38:37.041Z,97663.13
2022-12-31T22:40:38.523Z,97666.53
2022-12-31T22:42:39.860Z,97664.84
2022-12-31T22:44:41.160Z,97676.75
2022-12-31T22:46:42.599Z,97664.88
2022-12-31T22:48:43.949Z,97666.53
2022-12-31T22:50:45.298Z,97676.72
2022-12-31T22:52:46.704Z,97664.00
2022-12-31T22:54:48.039Z,97681.75
2022-12-31T22:56:49.340Z,97678.22
2022-12-31T22:58:50.643Z,97683.22
2022-12-31T23:00:51.935Z,97679.72
2022-12-31T23:02:53.326Z,97671.53
2022-12-31T23:04:54.674Z,97682.09
2022-12-31T23:07:15.938Z,97668.47
2022-12-31T23:09:35.818Z,97683.69
2022-12-31T23:11:37.133Z,97675.56
2022-12-31T23:13:56.903Z,97683.25
2022-12-31T23:16:16.734Z,97678.81
2022-12-31T23:18:36.799Z,97679.47
2022-12-31T23:20:56.663Z,97675.72
2022-12-31T23:23:10.033Z,97671.28
2022-12-31T23:25:11.358Z,97661.81
2022-12-31T23:27:12.663Z,97666.47
2022-12-31T23:29:14.009Z,97661.75
2022-12-31T23:31:15.423Z,97668.03
2022-12-31T23:33:16.867Z,97671.00
2022-12-31T23:35:18.207Z,97676.13
2022-12-31T23:37:19.544Z,97673.69
2022-12-31T23:39:20.838Z,97689.56
2022-12-31T23:41:22.141Z,97697.22
2022-12-31T23:43:23.447Z,97701.00
2022-12-31T23:45:29.565Z,97702.78
2022-12-31T23:47:34.011Z,97709.00
2022-12-31T23:49:35.396Z,97713.44
2022-12-31T23:51:36.752Z,97720.28
2022-12-31T23:53:38.140Z,97725.44
2022-12-31T23:55:39.471Z,97740.63
2022-12-31T23:57:40.818Z,97745.88
2022-12-31T23:59:42.111Z,97736.44
